Time;durP1;ratioP1;P1;durP2;ratioP2;P2;SDS_P1;SDS_P2;PMS_P1;PMS_P2;Temp;Humidity;BMP_temperature;BMP_pressure;BME280_temperature;BME280_humidity;BME280_pressure;Samples;Min_cycle;Max_cycle;Signal;HPM_P1;HPM_P2
2021/08/21 00:00:21;;;;;;;;;;;;;;;15.35;72.40;96705.50;5093247;28;19950;-77
2021/08/21 00:02:47;;;;;;;;;;;;;;;15.36;72.24;96701.78;5093896;28;20005;-77
2021/08/21 00:05:13;;;;;;;;;;;;;;;15.35;72.22;96696.75;5092833;28;19952;-76
2021/08/21 00:07:39;;;;;;;;;;;;;;;15.33;72.54;96694.34;5093209;28;19966;-77
2021/08/21 00:10:19;;;;;;;;;;;;;;;15.32;72.71;96703.31;5092279;28;20312;-77
2021/08/21 00:12:45;;;;;;;;;;;;;;;15.31;72.61;96699.09;5093809;28;19972;-77
2021/08/21 00:15:13;;;;;;;;;;;;;;;15.31;72.68;96698.28;5093517;28;19981;-76
2021/08/21 00:17:39;;;;;;;;;;;;;;;15.28;72.65;96696.91;5093539;28;19960;-77
2021/08/21 00:20:06;;;;;;;;;;;;;;;15.25;73.55;96696.63;5092680;28;19959;-77
2021/08/21 00:22:32;;;;;;;;;;;;;;;15.23;73.06;96697.63;5093160;28;19959;-76
2021/08/21 00:24:58;;;;;;;;;;;;;;;15.23;73.03;96697.63;5092731;28;19948;-76
2021/08/21 00:27:26;;;;;;;;;;;;;;;15.21;73.38;96697.06;5093612;28;20004;-76
2021/08/21 00:29:52;;;;;;;;;;;;;;;15.19;73.40;96691.22;5092438;28;19984;-76
2021/08/21 00:32:18;;;;;;;;;;;;;;;15.17;73.34;96693.31;5092857;28;19980;-76
2021/08/21 00:34:44;;;;;;;;;;;;;;;15.16;73.35;96694.38;5093288;28;20477;-78
2021/08/21 00:37:10;;;;;;;;;;;;;;;15.13;73.33;96692.19;5092823;28;19971;-77
2021/08/21 00:39:36;;;;;;;;;;;;;;;15.12;73.10;96695.06;5097112;28;19956;-77
2021/08/21 00:42:03;;;;;;;;;;;;;;;15.10;73.10;96690.03;5096794;28;19955;-77
2021/08/21 00:44:30;;;;;;;;;;;;;;;15.08;73.62;96692.13;5096339;28;19982;-76
2021/08/21 00:47:12;;;;;;;;;;;;;;;15.06;73.53;96694.19;5096269;28;19961;-76
2021/08/21 00:49:39;;;;;;;;;;;;;;;15.02;73.74;96688.59;5096478;28;19945;-76
2021/08/21 00:52:06;;;;;;;;;;;;;;;15.00;73.54;96681.97;5096445;28;19952;-77
2021/08/21 00:54:32;;;;;;;;;;;;;;;14.99;73.54;96688.25;5096614;28;19957;-77
2021/08/21 00:57:00;;;;;;;;;;;;;;;14.98;73.69;96689.31;5096763;28;19955;-76
2021/08/21 00:59:28;;;;;;;;;;;;;;;14.95;74.11;96680.03;5096445;28;19955;-76
2021/08/21 01:01:54;;;;;;;;;;;;;;;14.93;73.76;96687.41;5096225;28;19949;-76
2021/08/21 01:04:20;;;;;;;;;;;;;;;14.91;73.71;96684.19;5096206;28;19957;-76
2021/08/21 01:06:46;;;;;;;;;;;;;;;14.88;74.09;96689.94;5096379;28;19971;-77
2021/08/21 01:09:12;;;;;;;;;;;;;;;14.87;73.96;96677.00;5096565;28;19965;-77
2021/08/21 01:11:39;;;;;;;;;;;;;;;14.84;74.46;96688.03;5096207;28;20364;-77
2021/08/21 01:14:05;;;;;;;;;;;;;;;14.82;74.63;96683.81;5096218;28;19975;-77
2021/08/21 01:16:31;;;;;;;;;;;;;;;14.80;74.19;96687.69;5095995;28;19948;-79
2021/08/21 01:18:57;;;;;;;;;;;;;;;14.78;74.15;96692.41;5094961;28;19998;-78
2021/08/21 01:21:23;;;;;;;;;;;;;;;14.77;74.01;96696.09;5095994;28;19952;-76
2021/08/21 01:23:49;;;;;;;;;;;;;;;14.74;74.19;96691.28;5096101;28;20042;-75
2021/08/21 01:26:15;;;;;;;;;;;;;;;14.70;74.36;96693.63;5095707;28;20407;-77
2021/08/21 01:28:41;;;;;;;;;;;;;;;14.67;74.34;96690.66;5096328;28;19960;-75
2021/08/21 01:31:07;;;;;;;;;;;;;;;14.65;74.03;96688.22;5093871;28;20443;-77
2021/08/21 01:33:34;;;;;;;;;;;;;;;14.64;74.13;96688.50;5095788;28;19982;-76
2021/08/21 01:36:00;;;;;;;;;;;;;;;14.61;74.23;96687.94;5095682;28;19964;-76
2021/08/21 01:38:26;;;;;;;;;;;;;;;14.60;75.17;96690.78;5096260;28;19953;-76
2021/08/21 01:40:52;;;;;;;;;;;;;;;14.56;74.50;96684.38;5094531;28;19976;-77
2021/08/21 01:43:19;;;;;;;;;;;;;;;14.54;74.55;96683.78;5095733;28;19952;-76
2021/08/21 01:45:45;;;;;;;;;;;;;;;14.53;74.78;96684.81;5095311;28;20338;-76
2021/08/21 01:48:13;;;;;;;;;;;;;;;14.51;74.90;96687.72;5095176;28;19988;-77
2021/08/21 01:50:40;;;;;;;;;;;;;;;14.48;74.71;96682.09;5095825;28;19962;-76
2021/08/21 01:53:17;;;;;;;;;;;;;;;14.46;74.89;96682.31;5094592;28;19968;-76
2021/08/21 01:55:44;;;;;;;;;;;;;;;14.44;74.92;96680.97;5095376;28;19959;-78
2021/08/21 01:58:21;;;;;;;;;;;;;;;14.41;75.18;96680.41;5094764;28;19953;-77
2021/08/21 02:00:47;;;;;;;;;;;;;;;14.39;74.92;96679.84;5095779;28;19958;-76
2021/08/21 02:03:13;;;;;;;;;;;;;;;14.38;75.18;96677.44;5094921;28;20411;-77
2021/08/21 02:05:40;;;;;;;;;;;;;;;14.36;75.43;96677.69;5095013;28;19955;-77
2021/08/21 02:08:06;;;;;;;;;;;;;;;14.33;75.20;96678.16;5094920;28;19955;-78
2021/08/21 02:10:32;;;;;;;;;;;;;;;14.32;75.45;96678.38;5094953;28;19959;-77
2021/08/21 02:12:57;;;;;;;;;;;;;;;14.28;75.38;96678.06;5094980;28;19973;-77
2021/08/21 02:15:23;;;;;;;;;;;;;;;14.27;75.46;96676.44;5095007;28;20399;-77
2021/08/21 02:17:49;;;;;;;;;;;;;;;14.25;75.50;96675.09;5094517;28;19956;-77
2021/08/21 02:20:15;;;;;;;;;;;;;;;14.23;75.13;96672.66;5095169;28;19997;-77
2021/08/21 02:22:43;;;;;;;;;;;;;;;14.21;75.30;96669.47;5094824;28;20315;-77
2021/08/21 02:25:09;;;;;;;;;;;;;;;14.19;75.53;96672.38;5094870;28;20338;-79
2021/08/21 02:27:41;;;;;;;;;;;;;;;14.18;75.55;96667.31;5094661;28;19957;-79
2021/08/21 02:30:07;;;;;;;;;;;;;;;14.15;75.70;96665.97;5094661;28;20347;-77
2021/08/21 02:32:33;;;;;;;;;;;;;;;14.14;75.95;96663.53;5094474;28;19971;-77
2021/08/21 02:35:00;;;;;;;;;;;;;;;14.12;75.98;96666.41;5094759;28;20009;-77
2021/08/21 02:37:26;;;;;;;;;;;;;;;14.09;76.07;96658.97;5094665;28;20351;-77
2021/08/21 02:39:53;;;;;;;;;;;;;;;14.09;76.19;96658.97;5094242;28;19951;-76
2021/08/21 02:42:18;;;;;;;;;;;;;;;14.07;76.34;96652.31;5094304;28;19967;-76
2021/08/21 02:44:44;;;;;;;;;;;;;;;14.05;76.77;96657.03;5094519;28;19953;-77
2021/08/21 02:47:10;;;;;;;;;;;;;;;14.04;76.45;96650.16;5094444;28;19949;-80
2021/08/21 02:49:36;;;;;;;;;;;;;;;14.02;76.29;96653.03;5093337;28;20050;-78
2021/08/21 02:52:03;;;;;;;;;;;;;;;14.00;76.41;96650.63;5094124;28;19981;-77
2021/08/21 02:54:29;;;;;;;;;;;;;;;13.99;76.67;96651.66;5094140;28;19976;-76
2021/08/21 02:56:55;;;;;;;;;;;;;;;13.98;76.46;96655.34;5093196;28;20465;-77
2021/08/21 02:59:21;;;;;;;;;;;;;;;13.97;76.55;96650.31;5094236;28;19961;-76
2021/08/21 03:01:47;;;;;;;;;;;;;;;13.95;76.42;96642.63;5093577;28;20043;-77
2021/08/21 03:04:13;;;;;;;;;;;;;;;13.94;76.47;96645.47;5094375;28;19968;-78
2021/08/21 03:06:39;;;;;;;;;;;;;;;13.91;76.51;96654.66;5094289;28;19985;-77
2021/08/21 03:09:05;;;;;;;;;;;;;;;13.89;76.11;96650.66;5094217;28;19949;-76
2021/08/21 03:11:31;;;;;;;;;;;;;;;13.88;76.48;96659.59;5093870;28;19958;-77
2021/08/21 03:13:57;;;;;;;;;;;;;;;13.86;76.83;96662.47;5093800;28;20348;-77
2021/08/21 03:16:23;;;;;;;;;;;;;;;13.86;76.35;96653.75;5094002;28;19959;-76
2021/08/21 03:18:49;;;;;;;;;;;;;;;13.86;76.41;96657.22;5094198;28;19997;-76
2021/08/21 03:21:15;;;;;;;;;;;;;;;13.85;76.91;96652.16;5093844;28;19949;-76
2021/08/21 03:23:42;;;;;;;;;;;;;;;13.83;77.12;96651.59;5093746;28;19956;-76
2021/08/21 03:26:08;;;;;;;;;;;;;;;13.81;76.91;96649.19;5093860;28;19959;-76
2021/08/21 03:28:35;;;;;;;;;;;;;;;13.81;76.78;96649.97;5092708;28;19979;-77
2021/08/21 03:31:00;;;;;;;;;;;;;;;13.78;77.00;96658.38;5093155;28;19994;-77
2021/08/21 03:33:26;;;;;;;;;;;;;;;13.77;77.16;96651.50;5093518;28;20346;-76
2021/08/21 03:35:52;;;;;;;;;;;;;;;13.75;77.21;96648.31;5093688;28;20019;-77
2021/08/21 03:38:19;;;;;;;;;;;;;;;13.74;77.61;96649.31;5093783;28;19965;-77
2021/08/21 03:40:44;;;;;;;;;;;;;;;13.73;77.34;96652.19;5092217;28;20330;-78
2021/08/21 03:43:10;;;;;;;;;;;;;;;13.73;77.15;96653.00;5094193;28;19961;-77
2021/08/21 03:45:40;;;;;;;;;;;;;;;13.71;77.02;96648.97;5093654;28;19969;-77
2021/08/21 03:48:07;;;;;;;;;;;;;;;13.70;76.88;96650.03;5093276;28;19960;-77
2021/08/21 03:50:33;;;;;;;;;;;;;;;13.70;76.85;96647.38;5093431;28;20352;-76
2021/08/21 03:52:59;;;;;;;;;;;;;;;13.68;77.04;96647.63;5093495;28;19964;-77
2021/08/21 03:55:24;;;;;;;;;;;;;;;13.67;77.59;96635.47;5093352;28;20426;-77
2021/08/21 03:57:50;;;;;;;;;;;;;;;13.68;77.58;96652.88;5093713;28;19949;-77
2021/08/21 04:00:16;;;;;;;;;;;;;;;13.67;77.15;96647.84;5093184;28;20372;-76
2021/08/21 04:02:42;;;;;;;;;;;;;;;13.68;76.88;96652.09;5093475;28;19996;-76
2021/08/21 04:05:09;;;;;;;;;;;;;;;13.67;76.78;96651.28;5092811;28;19962;-76
2021/08/21 04:07:34;;;;;;;;;;;;;;;13.66;77.16;96654.16;5093320;28;19953;-78
2021/08/21 04:10:02;;;;;;;;;;;;;;;13.65;77.31;96656.00;5093636;28;19982;-78
2021/08/21 04:12:28;;;;;;;;;;;;;;;13.65;77.17;96655.16;5093379;28;19954;-77
2021/08/21 04:14:54;;;;;;;;;;;;;;;13.64;76.89;96648.31;5096712;28;19973;-76
2021/08/21 04:17:19;;;;;;;;;;;;;;;13.63;77.66;96657.22;5096997;28;19955;-78
2021/08/21 04:19:45;;;;;;;;;;;;;;;13.62;77.23;96655.66;5096120;28;20016;-77
2021/08/21 04:22:11;;;;;;;;;;;;;;;13.60;77.50;96654.03;5096717;28;20011;-77
2021/08/21 04:24:37;;;;;;;;;;;;;;;13.60;77.48;96661.13;5097177;28;19997;-78
2021/08/21 04:27:03;;;;;;;;;;;;;;;13.63;77.40;96659.88;5096916;28;20452;-78
2021/08/21 04:29:29;;;;;;;;;;;;;;;13.64;77.41;96664.13;5096514;28;19960;-78
2021/08/21 04:31:55;;;;;;;;;;;;;;;13.65;77.43;96661.25;5097368;28;19984;-77
2021/08/21 04:34:21;;;;;;;;;;;;;;;13.65;77.94;96656.00;5096554;28;19982;-77
2021/08/21 04:36:48;;;;;;;;;;;;;;;13.66;77.73;96659.44;5096911;28;19955;-76
2021/08/21 04:39:14;;;;;;;;;;;;;;;13.67;77.75;96667.09;5096938;28;19966;-76
2021/08/21 04:41:40;;;;;;;;;;;;;;;13.70;77.66;96663.19;5096667;28;19955;-76
2021/08/21 04:44:06;;;;;;;;;;;;;;;13.72;77.73;96669.03;5095878;28;19947;-76
2021/08/21 04:46:34;;;;;;;;;;;;;;;13.73;77.26;96668.81;5097182;28;19974;-76
2021/08/21 04:49:00;;;;;;;;;;;;;;;13.75;77.23;96668.56;5096867;28;19948;-76
2021/08/21 04:51:26;;;;;;;;;;;;;;;13.78;77.19;96673.38;5096708;28;19948;-76
2021/08/21 04:53:52;;;;;;;;;;;;;;;13.81;77.52;96673.69;5096609;28;19986;-76
2021/08/21 04:56:18;;;;;;;;;;;;;;;13.86;77.65;96674.84;5096744;28;20299;-76
2021/08/21 04:58:44;;;;;;;;;;;;;;;13.89;78.09;96669.13;5096791;28;19990;-76
2021/08/21 05:01:10;;;;;;;;;;;;;;;13.99;78.88;96675.41;5096476;28;20382;-76
2021/08/21 05:03:36;;;;;;;;;;;;;;;14.21;78.52;96675.56;5096536;28;20015;-76
2021/08/21 05:06:02;;;;;;;;;;;;;;;14.51;77.88;96673.69;5096493;28;19958;-76
2021/08/21 05:08:28;;;;;;;;;;;;;;;14.79;77.14;96665.78;5096384;28;19967;-76
2021/08/21 05:10:54;;;;;;;;;;;;;;;14.96;76.52;96670.28;5096323;28;20353;-76
2021/08/21 05:13:20;;;;;;;;;;;;;;;15.10;75.94;96665.44;5077813;28;19976;-76
2021/08/21 05:15:46;;;;;;;;;;;;;;;15.18;75.56;96665.03;5095597;28;20431;-76
2021/08/21 05:18:13;;;;;;;;;;;;;;;15.27;74.96;96662.81;5096133;28;19950;-76
2021/08/21 05:20:49;;;;;;;;;;;;;;;15.33;74.58;96657.38;5095591;28;19958;-76
2021/08/21 05:23:15;;;;;;;;;;;;;;;15.32;74.37;96668.16;5095872;28;19955;-76
2021/08/21 05:25:42;;;;;;;;;;;;;;;15.28;74.36;96669.69;5096018;28;19958;-76
2021/08/21 05:28:09;;;;;;;;;;;;;;;15.29;74.76;96669.47;5095834;28;19948;-78
2021/08/21 05:30:38;;;;;;;;;;;;;;;15.37;74.42;96663.75;5095730;28;19988;-76
2021/08/21 05:33:11;;;;;;;;;;;;;;;15.47;74.55;96671.00;5095824;28;20327;-77
2021/08/21 05:35:37;;;;;;;;;;;;;;;15.50;74.37;96672.41;5082665;28;20412;-76
2021/08/21 05:38:04;;;;;;;;;;;;;;;15.47;74.25;96671.00;5096142;28;19967;-76
2021/08/21 05:40:30;;;;;;;;;;;;;;;15.42;74.23;96676.25;5095627;28;19954;-76
2021/08/21 05:42:56;;;;;;;;;;;;;;;15.40;74.54;96676.47;5095711;28;20318;-76
2021/08/21 05:45:22;;;;;;;;;;;;;;;15.39;74.72;96682.00;5095347;28;20391;-76
2021/08/21 05:47:48;;;;;;;;;;;;;;;15.42;75.11;96682.31;5095477;28;19969;-76
2021/08/21 05:50:14;;;;;;;;;;;;;;;15.47;74.65;96672.88;5095111;28;19963;-76
2021/08/21 05:52:40;;;;;;;;;;;;;;;15.49;74.14;96679.50;5095732;28;19998;-76
2021/08/21 05:55:07;;;;;;;;;;;;;;;15.55;74.16;96675.88;5095156;28;19975;-76
2021/08/21 05:57:33;;;;;;;;;;;;;;;15.68;74.14;96676.59;5095437;28;19964;-76
2021/08/21 05:59:58;;;;;;;;;;;;;;;15.82;73.62;96675.22;5095592;28;20310;-76
2021/08/21 06:02:25;;;;;;;;;;;;;;;15.93;73.07;96684.88;5095309;28;20048;-76
2021/08/21 06:04:52;;;;;;;;;;;;;;;15.99;72.95;96683.09;5094906;28;19951;-76
2021/08/21 06:07:18;;;;;;;;;;;;;;;16.06;73.82;96691.63;5095264;28;19960;-76
2021/08/21 06:09:44;;;;;;;;;;;;;;;16.21;72.95;96691.00;5095494;28;19962;-76
2021/08/21 06:12:09;;;;;;;;;;;;;;;16.51;72.59;96690.56;5095118;28;20345;-76
2021/08/21 06:14:38;;;;;;;;;;;;;;;16.88;72.03;96694.34;5094823;28;20335;-76
2021/08/21 06:17:04;;;;;;;;;;;;;;;17.15;71.01;96703.06;5094419;28;20410;-77
2021/08/21 06:19:30;;;;;;;;;;;;;;;17.47;69.49;96696.94;5081443;28;20405;-76
2021/08/21 06:21:56;;;;;;;;;;;;;;;17.61;68.38;96698.06;5094944;28;20002;-76
2021/08/21 06:24:22;;;;;;;;;;;;;;;17.72;68.11;96685.66;5095098;28;20330;-76
2021/08/21 06:26:48;;;;;;;;;;;;;;;17.83;67.72;96689.22;5094817;28;20058;-76
2021/08/21 06:29:14;;;;;;;;;;;;;;;17.76;67.99;96688.59;5094544;28;19963;-76
2021/08/21 06:31:39;;;;;;;;;;;;;;;17.90;67.89;96688.97;5095095;28;19981;-76
2021/08/21 06:34:05;;;;;;;;;;;;;;;18.11;67.44;96689.84;5094408;28;19982;-76
2021/08/21 06:36:31;;;;;;;;;;;;;;;18.21;66.74;96687.25;5093996;28;19958;-76
2021/08/21 06:38:57;;;;;;;;;;;;;;;18.21;67.17;96690.69;5095000;28;19965;-76
2021/08/21 06:41:23;;;;;;;;;;;;;;;18.30;68.01;96696.28;5094774;28;19961;-76
2021/08/21 06:43:49;;;;;;;;;;;;;;;18.22;66.46;96688.81;5094444;28;20069;-76
2021/08/21 06:46:15;;;;;;;;;;;;;;;18.10;66.86;96698.84;5093153;28;19984;-76
2021/08/21 06:48:41;;;;;;;;;;;;;;;18.01;66.59;96695.91;5094462;28;20182;-76
2021/08/21 06:51:07;;;;;;;;;;;;;;;18.00;67.55;96707.59;5094307;28;20044;-76
2021/08/21 06:53:35;;;;;;;;;;;;;;;18.13;67.92;96703.66;5094220;28;20413;-76
2021/08/21 06:56:02;;;;;;;;;;;;;;;18.37;66.57;96693.38;5094293;28;19954;-76
2021/08/21 06:58:29;;;;;;;;;;;;;;;18.51;66.99;96696.34;5094194;28;19953;-76
2021/08/21 07:00:55;;;;;;;;;;;;;;;18.66;65.93;96696.38;5094550;28;19965;-76
2021/08/21 07:03:21;;;;;;;;;;;;;;;18.88;66.72;96690.03;5093812;28;19956;-76
2021/08/21 07:05:47;;;;;;;;;;;;;;;19.25;65.72;96687.13;5094048;28;19964;-76
2021/08/21 07:08:13;;;;;;;;;;;;;;;19.61;65.09;96692.38;5094195;28;20404;-76
2021/08/21 07:10:39;;;;;;;;;;;;;;;19.91;63.64;96685.41;5094368;28;20350;-75
2021/08/21 07:13:06;;;;;;;;;;;;;;;20.12;63.20;96683.50;5093959;28;20036;-76
2021/08/21 07:15:31;;;;;;;;;;;;;;;20.09;61.93;96679.47;5093844;28;20181;-75
2021/08/21 07:17:58;;;;;;;;;;;;;;;20.18;62.66;96685.84;5093979;28;19958;-75
2021/08/21 07:20:24;;;;;;;;;;;;;;;20.28;61.60;96671.66;5093979;28;19958;-75
2021/08/21 07:22:49;;;;;;;;;;;;;;;20.24;61.82;96670.63;5094248;28;20047;-75
2021/08/21 07:25:15;;;;;;;;;;;;;;;20.16;62.00;96674.69;5093198;28;20396;-75
2021/08/21 07:27:41;;;;;;;;;;;;;;;20.07;61.88;96677.13;5093602;28;19965;-75
2021/08/21 07:30:08;;;;;;;;;;;;;;;20.17;62.72;96686.91;5093822;28;20441;-75
2021/08/21 07:32:34;;;;;;;;;;;;;;;20.12;62.58;96692.28;5093509;28;19961;-75
2021/08/21 07:35:02;;;;;;;;;;;;;;;20.11;62.42;96687.22;5093818;28;19994;-75
2021/08/21 07:37:29;;;;;;;;;;;;;;;20.09;61.89;96676.81;5093816;28;20289;-75
2021/08/21 07:39:55;;;;;;;;;;;;;;;20.11;62.13;96682.66;5093732;28;19958;-75
2021/08/21 07:42:21;;;;;;;;;;;;;;;20.18;62.70;96690.34;5093135;28;19964;-76
2021/08/21 07:44:47;;;;;;;;;;;;;;;20.24;62.11;96681.28;5093830;28;20321;-76
2021/08/21 07:47:13;;;;;;;;;;;;;;;20.47;60.68;96661.19;5095460;28;20410;-75
2021/08/21 07:49:38;;;;;;;;;;;;;;;20.68;61.61;96677.84;5097136;28;19962;-75
2021/08/21 07:52:05;;;;;;;;;;;;;;;20.81;60.72;96666.59;5097968;28;19959;-74
2021/08/21 07:54:30;;;;;;;;;;;;;;;20.88;60.22;96672.38;5097657;28;19984;-74
2021/08/21 07:56:56;;;;;;;;;;;;;;;20.92;59.91;96669.19;5097328;28;19954;-74
2021/08/21 07:59:22;;;;;;;;;;;;;;;21.13;59.36;96662.59;5098370;28;20051;-75
2021/08/21 08:01:48;;;;;;;;;;;;;;;21.34;58.51;96655.22;5097747;28;19967;-75
2021/08/21 08:04:14;;;;;;;;;;;;;;;21.44;59.05;96667.66;5096180;28;19955;-75
2021/08/21 08:06:40;;;;;;;;;;;;;;;21.54;58.94;96674.78;5097897;28;19961;-74
2021/08/21 08:09:06;;;;;;;;;;;;;;;21.71;57.67;96655.66;5096792;28;19953;-75
2021/08/21 08:11:32;;;;;;;;;;;;;;;21.86;55.91;96642.16;5095190;28;19963;-75
2021/08/21 08:13:58;;;;;;;;;;;;;;;21.95;57.23;96648.44;5096846;28;19979;-75
2021/08/21 08:16:23;;;;;;;;;;;;;;;21.97;57.62;96656.94;5097483;28;19962;-75
2021/08/21 08:18:49;;;;;;;;;;;;;;;22.04;56.92;96652.03;5097389;28;20367;-75
2021/08/21 08:21:19;;;;;;;;;;;;;;;22.15;55.79;96646.56;5097364;28;20374;-74
2021/08/21 08:23:46;;;;;;;;;;;;;;;22.19;55.04;96642.25;5096565;28;19976;-76
2021/08/21 08:26:12;;;;;;;;;;;;;;;22.17;55.42;96652.44;5097283;28;19957;-75
2021/08/21 08:28:38;;;;;;;;;;;;;;;22.19;56.53;96664.41;5097077;28;20348;-75
2021/08/21 08:31:04;;;;;;;;;;;;;;;22.33;56.89;96661.06;5096723;28;19980;-75
2021/08/21 08:33:30;;;;;;;;;;;;;;;22.43;55.66;96653.72;5097140;28;19964;-75
2021/08/21 08:35:56;;;;;;;;;;;;;;;22.20;55.05;96651.88;5096450;28;20012;-75
2021/08/21 08:38:22;;;;;;;;;;;;;;;22.07;56.40;96666.72;5096863;28;19961;-76
2021/08/21 08:40:48;;;;;;;;;;;;;;;22.05;54.21;96639.50;5096578;28;19964;-75
2021/08/21 08:43:15;;;;;;;;;;;;;;;22.05;56.33;96658.19;5097040;28;19957;-75
2021/08/21 08:45:43;;;;;;;;;;;;;;;22.06;56.97;96663.25;5096774;28;19962;-75
2021/08/21 08:48:09;;;;;;;;;;;;;;;22.21;56.93;96664.13;5097088;28;19957;-75
2021/08/21 08:50:35;;;;;;;;;;;;;;;22.40;56.14;96653.47;5096575;28;19959;-75
2021/08/21 08:53:01;;;;;;;;;;;;;;;22.55;56.51;96655.13;5096357;28;20471;-75
2021/08/21 08:55:27;;;;;;;;;;;;;;;22.68;55.89;96651.75;5096705;28;19986;-74
2021/08/21 08:57:53;;;;;;;;;;;;;;;22.81;55.12;96644.88;5095087;28;20074;-75
2021/08/21 09:00:20;;;;;;;;;;;;;;;22.86;55.47;96648.25;5096119;28;20008;-74
2021/08/21 09:02:47;;;;;;;;;;;;;;;22.82;55.53;96649.91;5096442;28;19959;-74
2021/08/21 09:05:16;;;;;;;;;;;;;;;22.79;54.41;96637.13;5096276;28;19963;-74
2021/08/21 09:07:46;;;;;;;;;;;;;;;22.78;56.08;96648.13;5096335;28;20037;-74
2021/08/21 09:10:22;;;;;;;;;;;;;;;22.84;55.97;96655.75;5096353;28;20450;-74
2021/08/21 09:12:49;;;;;;;;;;;;;;;22.90;55.27;96643.09;5096277;28;19959;-75
2021/08/21 09:15:20;;;;;;;;;;;;;;;22.96;55.86;96651.84;5096007;28;20080;-75
2021/08/21 09:17:58;;;;;;;;;;;;;;;23.07;56.31;96655.97;5095374;28;19959;-75
2021/08/21 09:20:24;;;;;;;;;;;;;;;23.10;55.23;96642.03;5094161;28;19954;-75
2021/08/21 09:22:49;;;;;;;;;;;;;;;23.20;56.07;96643.72;5084499;28;19963;-76
2021/08/21 09:25:27;;;;;;;;;;;;;;;23.19;55.49;96650.94;5084705;28;20036;-75
2021/08/21 09:27:53;;;;;;;;;;;;;;;23.22;54.92;96639.66;5095589;28;20440;-75
2021/08/21 09:30:19;;;;;;;;;;;;;;;23.15;54.49;96639.25;5095307;28;19980;-75
2021/08/21 09:32:47;;;;;;;;;;;;;;;23.18;55.87;96638.69;5095532;28;19975;-75
2021/08/21 09:35:13;;;;;;;;;;;;;;;23.19;55.61;96644.81;5095968;28;20155;-75
2021/08/21 09:37:52;;;;;;;;;;;;;;;23.22;56.31;96644.22;5095533;28;19964;-75
2021/08/21 09:40:24;;;;;;;;;;;;;;;23.30;55.54;96638.97;5095739;28;19959;-75
2021/08/21 09:42:50;;;;;;;;;;;;;;;23.29;54.52;96617.88;5095785;28;19961;-75
2021/08/21 09:45:19;;;;;;;;;;;;;;;23.29;54.86;96618.66;5095404;28;20008;-75
2021/08/21 09:47:45;;;;;;;;;;;;;;;23.35;55.01;96622.06;5095826;28;19956;-75
2021/08/21 09:50:16;;;;;;;;;;;;;;;23.35;56.02;96630.09;5095317;28;19962;-75
2021/08/21 09:52:42;;;;;;;;;;;;;;;23.43;55.88;96623.22;5095623;28;19964;-76
2021/08/21 09:55:14;;;;;;;;;;;;;;;23.53;56.17;96619.56;5079367;28;20318;-75
2021/08/21 09:57:40;;;;;;;;;;;;;;;23.65;54.70;96607.28;5095331;28;19958;-75
2021/08/21 10:00:06;;;;;;;;;;;;;;;23.78;55.42;96618.31;5095481;28;20388;-75
2021/08/21 10:02:33;;;;;;;;;;;;;;;23.84;55.22;96614.44;5095535;28;19971;-75
2021/08/21 10:05:00;;;;;;;;;;;;;;;23.90;55.67;96614.03;5095433;28;19965;-75
2021/08/21 10:07:33;;;;;;;;;;;;;;;23.99;55.15;96614.13;5095327;28;19955;-75
2021/08/21 10:10:03;;;;;;;;;;;;;;;24.13;55.78;96610.63;5094549;28;20452;-75
2021/08/21 10:12:30;;;;;;;;;;;;;;;24.33;55.32;96612.84;5094749;28;20016;-75
2021/08/21 10:14:56;;;;;;;;;;;;;;;24.48;54.03;96596.44;5095326;28;19971;-75
2021/08/21 10:17:22;;;;;;;;;;;;;;;24.63;54.01;96597.19;5094403;28;20362;-75
2021/08/21 10:19:48;;;;;;;;;;;;;;;24.70;53.48;96603.72;5095155;28;20002;-75
2021/08/21 10:22:15;;;;;;;;;;;;;;;24.80;53.40;96597.31;5095007;28;20416;-75
2021/08/21 10:24:42;;;;;;;;;;;;;;;24.85;53.00;96594.50;5094725;28;19967;-75
2021/08/21 10:27:08;;;;;;;;;;;;;;;24.87;51.23;96570.84;5094405;28;19961;-74
2021/08/21 10:29:34;;;;;;;;;;;;;;;24.90;52.36;96596.25;5094314;28;20096;-75
2021/08/21 10:32:00;;;;;;;;;;;;;;;24.97;53.15;96591.25;5095029;28;20011;-75
2021/08/21 10:34:26;;;;;;;;;;;;;;;25.08;52.00;96586.44;5094261;28;19978;-75
2021/08/21 10:36:56;;;;;;;;;;;;;;;25.17;52.29;96592.63;5094837;28;19975;-75
2021/08/21 10:39:25;;;;;;;;;;;;;;;25.19;51.92;96581.56;5094422;28;19978;-75
2021/08/21 10:41:53;;;;;;;;;;;;;;;25.26;53.21;96598.06;5094475;28;19964;-75
2021/08/21 10:44:40;;;;;;;;;;;;;;;25.36;52.54;96583.56;5095034;28;19949;-74
2021/08/21 10:47:06;;;;;;;;;;;;;;;25.38;52.87;96598.25;5083504;28;19976;-75
2021/08/21 10:49:50;;;;;;;;;;;;;;;25.47;52.42;96592.91;5094403;28;19999;-76
2021/08/21 10:52:34;;;;;;;;;;;;;;;25.54;52.05;96589.81;5082443;28;20319;-75
2021/08/21 10:55:33;;;;;;;;;;;;;;;25.65;51.25;96575.00;5094258;28;20345;-75
2021/08/21 10:58:06;;;;;;;;;;;;;;;25.73;51.86;96580.38;5071176;28;19963;-76
2021/08/21 11:00:38;;;;;;;;;;;;;;;25.89;51.17;96579.94;5080077;28;20450;-75
2021/08/21 11:03:11;;;;;;;;;;;;;;;26.05;51.11;96574.94;5094476;28;20333;-74
2021/08/21 11:05:57;;;;;;;;;;;;;;;26.15;50.18;96568.47;5093986;28;19965;-74
2021/08/21 11:08:27;;;;;;;;;;;;;;;26.28;50.83;96575.56;5094285;28;19962;-75
2021/08/21 11:11:08;;;;;;;;;;;;;;;26.41;50.03;96573.84;5094222;28;19972;-75
2021/08/21 11:14:00;;;;;;;;;;;;;;;26.48;48.20;96561.50;5094597;28;19968;-74
2021/08/21 11:16:46;;;;;;;;;;;;;;;26.44;47.81;96557.06;5081370;28;20041;-74
2021/08/21 11:19:14;;;;;;;;;;;;;;;26.56;48.24;96564.47;5093687;28;19966;-75
2021/08/21 11:21:40;;;;;;;;;;;;;;;26.63;48.07;96552.16;5093762;28;19956;-75
2021/08/21 11:24:25;;;;;;;;;;;;;;;26.82;48.94;96561.81;5093452;28;19973;-75
2021/08/21 11:27:11;;;;;;;;;;;;;;;26.95;48.10;96552.72;5093934;28;19970;-75
2021/08/21 11:29:57;;;;;;;;;;;;;;;27.04;48.39;96552.69;5093043;28;19965;-75
2021/08/21 11:32:25;;;;;;;;;;;;;;;27.28;48.99;96561.03;5091657;28;21750;-75
2021/08/21 11:34:51;;;;;;;;;;;;;;;27.52;48.39;96544.28;5093446;28;20303;-74
2021/08/21 11:37:17;;;;;;;;;;;;;;;27.59;46.24;96551.06;5093597;28;20051;-75
2021/08/21 11:39:52;;;;;;;;;;;;;;;27.64;45.24;96550.88;5093655;28;20329;-75
2021/08/21 11:42:18;;;;;;;;;;;;;;;27.60;45.05;96579.59;5092241;28;19960;-75
2021/08/21 11:44:52;;;;;;;;;;;;;;;27.51;45.86;96577.72;5093715;28;20405;-75
2021/08/21 11:47:18;;;;;;;;;;;;;;;27.50;45.36;96580.75;5093587;28;19960;-74
2021/08/21 11:49:44;;;;;;;;;;;;;;;27.59;47.67;96592.25;5093506;28;19964;-75
2021/08/21 11:52:10;;;;;;;;;;;;;;;27.53;46.66;96591.66;5093022;28;19959;-75
2021/08/21 11:54:36;;;;;;;;;;;;;;;27.72;46.34;96579.69;5093594;28;20378;-75
2021/08/21 11:57:03;;;;;;;;;;;;;;;27.96;44.94;96567.53;5092533;28;19985;-74
2021/08/21 11:59:29;;;;;;;;;;;;;;;27.99;44.72;96585.72;5093651;28;20431;-75
2021/08/21 12:02:04;;;;;;;;;;;;;;;28.01;44.73;96586.19;5093588;28;19971;-75
2021/08/21 12:04:32;;;;;;;;;;;;;;;27.96;41.83;96554.81;5093452;28;19967;-74
2021/08/21 12:06:59;;;;;;;;;;;;;;;28.05;46.08;96595.97;5093561;28;20058;-75
2021/08/21 12:09:25;;;;;;;;;;;;;;;28.14;45.24;96575.16;5093734;28;20447;-75
2021/08/21 12:11:51;;;;;;;;;;;;;;;28.22;45.55;96578.88;5093507;28;19973;-74
2021/08/21 12:14:18;;;;;;;;;;;;;;;28.19;46.01;96576.88;5091464;28;19958;-75
2021/08/21 12:16:45;;;;;;;;;;;;;;;28.08;45.24;96575.69;5093290;28;19954;-75
2021/08/21 12:19:11;;;;;;;;;;;;;;;28.21;45.25;96580.03;5093458;28;19969;-76
2021/08/21 12:21:37;;;;;;;;;;;;;;;28.31;42.25;96555.34;5093516;28;19967;-75
2021/08/21 12:24:07;;;;;;;;;;;;;;;28.34;42.46;96556.59;5093243;28;19980;-75
2021/08/21 12:26:34;;;;;;;;;;;;;;;28.43;44.61;96575.41;5093206;28;19959;-75
2021/08/21 12:29:01;;;;;;;;;;;;;;;28.61;43.26;96560.66;5093330;28;20416;-75
2021/08/21 12:31:40;;;;;;;;;;;;;;;28.81;43.35;96550.16;5093079;28;19997;-74
2021/08/21 12:34:07;;;;;;;;;;;;;;;28.94;42.96;96559.88;5094534;28;19972;-75
2021/08/21 12:36:43;;;;;;;;;;;;;;;29.02;41.45;96556.28;5097397;28;19971;-75
2021/08/21 12:39:10;;;;;;;;;;;;;;;29.14;43.65;96572.50;5096958;28;19970;-75
2021/08/21 12:41:41;;;;;;;;;;;;;;;29.04;43.25;96569.44;5097110;28;19960;-75
2021/08/21 12:44:14;;;;;;;;;;;;;;;29.12;40.62;96541.56;5096852;28;19980;-75
2021/08/21 12:46:51;;;;;;;;;;;;;;;29.03;42.04;96559.78;5096899;28;19963;-75
2021/08/21 12:49:27;;;;;;;;;;;;;;;28.95;43.95;96569.53;5096944;28;20411;-75